Time;durP1;ratioP1;P1;durP2;ratioP2;P2;SDS_P1;SDS_P2;PMS_P1;PMS_P2;Temp;Humidity;BMP_temperature;BMP_pressure;BME280_temperature;BME280_humidity;BME280_pressure;Samples;Min_cycle;Max_cycle;Signal;HPM_P1;HPM_P2
2022/02/06 00:00:49;;;;;;;0.60;0.60;;;;;;;;;;5073971;28;20175;-62
2022/02/06 00:03:15;;;;;;;0.50;0.50;;;;;;;;;;5074115;28;20185;-61
2022/02/06 00:05:41;;;;;;;0.50;0.50;;;;;;;;;;5056301;28;20178;-61
2022/02/06 00:08:11;;;;;;;0.50;0.50;;;;;;;;;;5073795;28;20489;-61
2022/02/06 00:10:37;;;;;;;0.50;0.50;;;;;;;;;;5073863;28;20834;-61
2022/02/06 00:13:03;;;;;;;0.50;0.50;;;;;;;;;;5073974;28;20230;-61
2022/02/06 00:15:29;;;;;;;0.40;0.40;;;;;;;;;;5074045;28;20604;-61
2022/02/06 00:17:55;;;;;;;0.50;0.50;;;;;;;;;;5073989;28;20417;-61
2022/02/06 00:20:24;;;;;;;0.50;0.50;;;;;;;;;;5073657;28;20413;-61
2022/02/06 00:22:54;;;;;;;0.50;0.50;;;;;;;;;;5073827;28;20686;-61
2022/02/06 00:25:47;;;;;;;0.60;0.60;;;;;;;;;;5073899;28;20201;-61
2022/02/06 00:31:09;;;;;;;0.60;0.60;;;;;;;;;;5073584;28;20313;-61
2022/02/06 00:33:43;;;;;;;0.50;0.50;;;;;;;;;;5074001;28;20233;-61
2022/02/06 00:41:25;;;;;;;0.50;0.50;;;;;;;;;;5073297;28;20671;-61
2022/02/06 00:43:52;;;;;;;0.55;0.55;;;;;;;;;;5073640;28;20423;-61
2022/02/06 00:46:19;;;;;;;0.60;0.60;;;;;;;;;;5073388;28;20167;-61
2022/02/06 00:48:52;;;;;;;0.60;0.60;;;;;;;;;;5073364;28;20176;-61
2022/02/06 00:51:27;;;;;;;0.60;0.60;;;;;;;;;;5073214;28;20171;-61
2022/02/06 00:53:53;;;;;;;0.50;0.50;;;;;;;;;;5073314;28;20188;-61
2022/02/06 00:56:19;;;;;;;0.60;0.60;;;;;;;;;;5072553;28;20175;-61
2022/02/06 00:58:45;;;;;;;0.60;0.60;;;;;;;;;;5073361;28;20187;-61
2022/02/06 01:01:11;;;;;;;0.50;0.50;;;;;;;;;;5072826;28;20561;-61
2022/02/06 01:03:37;;;;;;;0.60;0.60;;;;;;;;;;5072993;28;20422;-61
2022/02/06 01:06:06;;;;;;;0.50;0.50;;;;;;;;;;5073082;28;20176;-61
2022/02/06 01:08:32;;;;;;;0.55;0.55;;;;;;;;;;5073052;28;20175;-61
2022/02/06 01:11:01;;;;;;;0.60;0.60;;;;;;;;;;5072880;28;20187;-61
2022/02/06 01:13:30;;;;;;;0.50;0.50;;;;;;;;;;5072776;28;20447;-61
2022/02/06 01:16:05;;;;;;;0.52;0.52;;;;;;;;;;5072894;28;20172;-61
2022/02/06 01:18:39;;;;;;;0.50;0.50;;;;;;;;;;5072880;28;20179;-61
2022/02/06 01:21:25;;;;;;;0.60;0.60;;;;;;;;;;5072558;28;20543;-61
2022/02/06 01:24:06;;;;;;;0.52;0.52;;;;;;;;;;5072718;28;20186;-60
2022/02/06 01:26:47;;;;;;;0.50;0.50;;;;;;;;;;5072650;28;20176;-61
2022/02/06 01:31:51;;;;;;;0.60;0.60;;;;;;;;;;5072559;28;20184;-61
2022/02/06 01:34:21;;;;;;;0.50;0.50;;;;;;;;;;5072606;28;20540;-61
2022/02/06 01:37:02;;;;;;;0.50;0.50;;;;;;;;;;5072462;28;20595;-61
2022/02/06 01:42:16;;;;;;;0.50;0.50;;;;;;;;;;5072208;28;20201;-61
2022/02/06 01:45:04;;;;;;;0.60;0.60;;;;;;;;;;5072451;28;20187;-61
2022/02/06 02:06:50;;;;;;;0.50;0.50;;;;;;;;;;5072112;28;20406;-61
2022/02/06 02:17:46;;;;;;;0.60;0.60;;;;;;;;;;5071954;28;20218;-61
2022/02/06 02:20:44;;;;;;;0.50;0.50;;;;;;;;;;5071628;28;20171;-61
2022/02/06 02:47:47;;;;;;;0.50;0.50;;;;;;;;;;5071562;28;20187;-61
2022/02/06 02:50:18;;;;;;;0.50;0.50;;;;;;;;;;5071509;28;20178;-61
2022/02/06 02:55:28;;;;;;;0.60;0.60;;;;;;;;;;5071381;28;20272;-61
2022/02/06 03:03:22;;;;;;;0.50;0.50;;;;;;;;;;5071432;28;20300;-61
2022/02/06 03:05:50;;;;;;;0.55;0.55;;;;;;;;;;5053325;28;20196;-59
2022/02/06 03:08:16;;;;;;;0.60;0.60;;;;;;;;;;5071373;28;20168;-61
2022/02/06 03:10:43;;;;;;;0.60;0.60;;;;;;;;;;5071330;28;20637;-61
2022/02/06 03:13:10;;;;;;;0.60;0.60;;;;;;;;;;5071147;28;20657;-61
2022/02/06 03:15:43;;;;;;;0.55;0.55;;;;;;;;;;5071499;28;20204;-61
2022/02/06 03:18:19;;;;;;;0.50;0.50;;;;;;;;;;5071339;28;20180;-61
2022/02/06 03:20:46;;;;;;;0.50;0.50;;;;;;;;;;5074910;28;20182;-61
2022/02/06 03:23:13;;;;;;;0.60;0.60;;;;;;;;;;5075256;28;20716;-62
2022/02/06 03:28:15;;;;;;;0.45;0.45;;;;;;;;;;5074999;28;20172;-61
2022/02/06 03:30:41;;;;;;;0.50;0.50;;;;;;;;;;5074577;28;20160;-62
2022/02/06 03:33:07;;;;;;;0.50;0.50;;;;;;;;;;5074802;28;20575;-61
2022/02/06 03:35:33;;;;;;;0.50;0.50;;;;;;;;;;5074825;28;20175;-62
2022/02/06 03:37:59;;;;;;;0.60;0.60;;;;;;;;;;5074743;28;20177;-62
2022/02/06 03:40:28;;;;;;;0.50;0.50;;;;;;;;;;5074488;28;20179;-62
2022/02/06 03:43:14;;;;;;;0.50;0.50;;;;;;;;;;5074579;28;20984;-62
2022/02/06 03:48:13;;;;;;;0.50;0.50;;;;;;;;;;5074775;28;20193;-62
2022/02/06 03:50:45;;;;;;;0.50;0.50;;;;;;;;;;5074394;28;20542;-61
2022/02/06 03:53:12;;;;;;;0.50;0.50;;;;;;;;;;5074500;28;20201;-62
2022/02/06 03:55:38;;;;;;;0.50;0.50;;;;;;;;;;5074309;28;20166;-62
2022/02/06 03:58:04;;;;;;;0.50;0.50;;;;;;;;;;5056474;28;20217;-62
2022/02/06 04:00:30;;;;;;;0.57;0.57;;;;;;;;;;5074164;28;20171;-62
2022/02/06 04:02:56;;;;;;;0.43;0.43;;;;;;;;;;5074201;28;20458;-62
2022/02/06 04:05:22;;;;;;;0.50;0.50;;;;;;;;;;5074293;28;20410;-62
2022/02/06 04:07:48;;;;;;;0.50;0.50;;;;;;;;;;5074231;28;20410;-62
2022/02/06 04:10:16;;;;;;;0.50;0.50;;;;;;;;;;5073842;28;20912;-62
2022/02/06 04:15:24;;;;;;;0.50;0.50;;;;;;;;;;5107096;22;20250;-65
2022/02/06 04:18:05;;;;;;;0.50;0.50;;;;;;;;;;5093995;28;20188;-66
2022/02/06 04:20:31;;;;;;;0.60;0.60;;;;;;;;;;5093879;28;20167;-62
2022/02/06 04:22:57;;;;;;;0.50;0.50;;;;;;;;;;5094039;28;20346;-64
2022/02/06 04:25:23;;;;;;;0.50;0.50;;;;;;;;;;5094057;28;20769;-64
2022/02/06 04:27:49;;;;;;;0.50;0.50;;;;;;;;;;5093872;28;20407;-64
2022/02/06 04:30:15;;;;;;;0.50;0.50;;;;;;;;;;5092595;28;20651;-64
2022/02/06 04:32:41;;;;;;;0.50;0.50;;;;;;;;;;5093868;28;20443;-65
2022/02/06 04:35:14;;;;;;;0.50;0.50;;;;;;;;;;5093737;28;20436;-64
2022/02/06 04:37:54;;;;;;;0.60;0.60;;;;;;;;;;5093798;28;20429;-64
2022/02/06 04:43:45;;;;;;;0.50;0.50;;;;;;;;;;5094328;28;20298;-64
2022/02/06 04:54:43;;;;;;;0.60;0.60;;;;;;;;;;5093107;28;20226;-66
2022/02/06 05:29:51;;;;;;;0.50;0.50;;;;;;;;;;5093041;28;20174;-62
2022/02/06 05:32:24;;;;;;;0.50;0.50;;;;;;;;;;5092492;28;20187;-62
2022/02/06 05:34:50;;;;;;;0.50;0.50;;;;;;;;;;5092816;28;20204;-65
2022/02/06 05:37:16;;;;;;;0.50;0.50;;;;;;;;;;5092643;28;20546;-64
2022/02/06 05:39:42;;;;;;;0.53;0.53;;;;;;;;;;5092534;28;20467;-64
2022/02/06 05:42:08;;;;;;;0.50;0.50;;;;;;;;;;5092011;28;20451;-65
2022/02/06 05:44:35;;;;;;;0.50;0.50;;;;;;;;;;5092425;28;20426;-65
2022/02/06 05:47:01;;;;;;;0.50;0.50;;;;;;;;;;5092481;28;20166;-64
2022/02/06 05:49:27;;;;;;;0.40;0.40;;;;;;;;;;5092528;28;20703;-66
2022/02/06 05:51:53;;;;;;;0.50;0.50;;;;;;;;;;5092336;28;20170;-64
2022/02/06 05:54:19;;;;;;;0.60;0.60;;;;;;;;;;5092324;28;20964;-64
2022/02/06 05:56:46;;;;;;;0.60;0.60;;;;;;;;;;5092458;28;20206;-63
2022/02/06 05:59:11;;;;;;;0.50;0.50;;;;;;;;;;5092409;28;20177;-63
2022/02/06 06:01:37;;;;;;;0.50;0.50;;;;;;;;;;5091939;28;20283;-65
2022/02/06 06:04:03;;;;;;;0.50;0.50;;;;;;;;;;5092140;28;20509;-64
2022/02/06 06:06:31;;;;;;;0.50;0.50;;;;;;;;;;5092111;28;20402;-65
2022/02/06 06:08:57;;;;;;;0.50;0.50;;;;;;;;;;5091788;28;20171;-64
2022/02/06 06:11:23;;;;;;;0.50;0.50;;;;;;;;;;5091880;28;20173;-64
2022/02/06 06:13:49;;;;;;;0.60;0.60;;;;;;;;;;5091813;28;20940;-64
2022/02/06 06:16:15;;;;;;;0.50;0.50;;;;;;;;;;5091979;28;20408;-63
2022/02/06 06:18:42;;;;;;;0.50;0.50;;;;;;;;;;5091937;28;20405;-65
2022/02/06 06:21:08;;;;;;;0.50;0.50;;;;;;;;;;5091698;28;20274;-64
2022/02/06 06:23:41;;;;;;;0.43;0.43;;;;;;;;;;5091671;28;20198;-64
2022/02/06 06:26:07;;;;;;;0.50;0.50;;;;;;;;;;5091976;28;20176;-65
2022/02/06 06:28:33;;;;;;;0.50;0.50;;;;;;;;;;5091846;28;20170;-64
2022/02/06 06:30:59;;;;;;;0.52;0.52;;;;;;;;;;5091683;28;20414;-64
2022/02/06 06:33:25;;;;;;;0.50;0.50;;;;;;;;;;5091767;28;20219;-64
2022/02/06 06:35:53;;;;;;;0.50;0.50;;;;;;;;;;5092152;28;20496;-64
2022/02/06 06:38:19;;;;;;;0.50;0.50;;;;;;;;;;5092044;28;20402;-63
2022/02/06 06:40:44;;;;;;;0.50;0.50;;;;;;;;;;5091425;28;20621;-65
2022/02/06 06:43:10;;;;;;;0.60;0.60;;;;;;;;;;5091233;28;20466;-63
2022/02/06 06:45:36;;;;;;;0.50;0.50;;;;;;;;;;5091652;28;20410;-64
2022/02/06 06:48:03;;;;;;;0.53;0.53;;;;;;;;;;5091455;28;20435;-64
2022/02/06 06:50:33;;;;;;;0.50;0.50;;;;;;;;;;5091354;28;20398;-62
2022/02/06 06:53:04;;;;;;;0.60;0.60;;;;;;;;;;5091720;28;20167;-63
2022/02/06 06:55:32;;;;;;;0.50;0.50;;;;;;;;;;5095725;28;20182;-64
2022/02/06 06:58:09;;;;;;;0.52;0.52;;;;;;;;;;5095852;28;20200;-65
2022/02/06 07:00:56;;;;;;;0.60;0.60;;;;;;;;;;5095648;28;20252;-64
2022/02/06 07:03:25;;;;;;;0.50;0.50;;;;;;;;;;5095677;28;20205;-64
2022/02/06 07:05:51;;;;;;;0.50;0.50;;;;;;;;;;5095449;28;20172;-63
2022/02/06 07:08:17;;;;;;;0.50;0.50;;;;;;;;;;5095472;28;20172;-63
2022/02/06 07:10:44;;;;;;;0.60;0.60;;;;;;;;;;5076963;28;20409;-65
2022/02/06 07:13:11;;;;;;;0.50;0.50;;;;;;;;;;5095306;28;20657;-65
2022/02/06 07:15:37;;;;;;;0.50;0.50;;;;;;;;;;5095460;28;20173;-65
2022/02/06 07:18:03;;;;;;;0.50;0.50;;;;;;;;;;5095312;28;20171;-65
2022/02/06 07:20:33;;;;;;;0.50;0.50;;;;;;;;;;5095058;28;20554;-65
2022/02/06 07:23:00;;;;;;;0.50;0.50;;;;;;;;;;5095062;28;20285;-64
2022/02/06 07:25:26;;;;;;;0.50;0.50;;;;;;;;;;5095116;28;20168;-63
2022/02/06 07:27:53;;;;;;;0.50;0.50;;;;;;;;;;5095254;28;20186;-64
2022/02/06 07:30:19;;;;;;;0.60;0.60;;;;;;;;;;5094900;28;20597;-64
2022/02/06 07:32:46;;;;;;;0.50;0.50;;;;;;;;;;5095046;28;20210;-64
2022/02/06 07:35:12;;;;;;;0.50;0.50;;;;;;;;;;5094832;28;20199;-65
2022/02/06 07:37:42;;;;;;;0.50;0.50;;;;;;;;;;5088805;28;20177;-65
2022/02/06 07:40:09;;;;;;;0.50;0.50;;;;;;;;;;5074395;28;20165;-61
2022/02/06 07:42:35;;;;;;;0.50;0.50;;;;;;;;;;5074397;28;20252;-65
2022/02/06 07:45:02;;;;;;;0.50;0.50;;;;;;;;;;5074341;28;20200;-64
2022/02/06 07:47:28;;;;;;;0.50;0.50;;;;;;;;;;5074293;28;20411;-64
2022/02/06 07:49:57;;;;;;;0.43;0.43;;;;;;;;;;5074179;28;20533;-64
2022/02/06 07:52:24;;;;;;;0.50;0.50;;;;;;;;;;5073972;28;20932;-64
2022/02/06 07:54:50;;;;;;;0.50;0.50;;;;;;;;;;5074154;28;20279;-65
2022/02/06 07:57:16;;;;;;;0.47;0.47;;;;;;;;;;5074216;28;20312;-62
2022/02/06 07:59:42;;;;;;;0.60;0.60;;;;;;;;;;5074297;28;20176;-64
2022/02/06 08:02:09;;;;;;;0.50;0.50;;;;;;;;;;5073935;28;20224;-63
2022/02/06 08:04:36;;;;;;;0.70;0.70;;;;;;;;;;5073981;28;20203;-65
2022/02/06 08:07:03;;;;;;;0.50;0.50;;;;;;;;;;5074105;28;20171;-64
2022/02/06 08:09:46;;;;;;;0.50;0.50;;;;;;;;;;5074280;28;20227;-64
2022/02/06 08:12:12;;;;;;;0.50;0.50;;;;;;;;;;5091351;28;20185;-65
2022/02/06 08:14:55;;;;;;;0.57;0.57;;;;;;;;;;5093910;28;20243;-64
2022/02/06 08:17:28;;;;;;;0.45;0.45;;;;;;;;;;5093890;28;20174;-65
2022/02/06 08:19:54;;;;;;;0.55;0.55;;;;;;;;;;5094105;28;20181;-65
2022/02/06 08:22:21;;;;;;;0.50;0.50;;;;;;;;;;5093269;28;20254;-65
2022/02/06 08:24:47;;;;;;;0.50;0.50;;;;;;;;;;5093881;28;20189;-65
2022/02/06 08:27:13;;;;;;;0.60;0.60;;;;;;;;;;5093846;28;20229;-63
2022/02/06 08:29:43;;;;;;;0.60;0.60;;;;;;;;;;5093916;28;20689;-63
2022/02/06 08:32:09;;;;;;;0.50;0.50;;;;;;;;;;5093730;28;20180;-64
2022/02/06 08:34:35;;;;;;;0.50;0.50;;;;;;;;;;5093737;28;20188;-64
2022/02/06 08:37:03;;;;;;;0.50;0.50;;;;;;;;;;5093977;28;20183;-64
2022/02/06 08:39:30;;;;;;;0.40;0.40;;;;;;;;;;5093951;28;20814;-63
2022/02/06 08:41:56;;;;;;;0.50;0.50;;;;;;;;;;5093521;28;20670;-62
2022/02/06 08:44:21;;;;;;;0.40;0.40;;;;;;;;;;5093270;28;20203;-64
2022/02/06 08:46:47;;;;;;;0.40;0.40;;;;;;;;;;5075535;28;20939;-59
2022/02/06 08:49:14;;;;;;;0.50;0.50;;;;;;;;;;5093750;28;20414;-64
2022/02/06 08:51:40;;;;;;;0.60;0.60;;;;;;;;;;5093365;28;20176;-63
2022/02/06 08:54:07;;;;;;;0.50;0.50;;;;;;;;;;5093443;28;20833;-63
2022/02/06 08:56:38;;;;;;;0.50;0.50;;;;;;;;;;5075266;28;20212;-62
2022/02/06 08:59:04;;;;;;;0.50;0.50;;;;;;;;;;5093788;28;20183;-62
2022/02/06 09:01:30;;;;;;;0.47;0.47;;;;;;;;;;5093228;28;20672;-64
2022/02/06 09:03:57;;;;;;;0.50;0.50;;;;;;;;;;5093161;28;20439;-63
2022/02/06 09:06:23;;;;;;;0.50;0.50;;;;;;;;;;5093285;28;20432;-64
2022/02/06 09:08:54;;;;;;;0.50;0.50;;;;;;;;;;5093047;28;20201;-61
2022/02/06 09:11:20;;;;;;;0.50;0.50;;;;;;;;;;5092228;28;20893;-65
2022/02/06 09:13:46;;;;;;;0.50;0.50;;;;;;;;;;5092975;28;20743;-62
2022/02/06 09:16:12;;;;;;;0.50;0.50;;;;;;;;;;5092435;28;20649;-63
2022/02/06 09:18:38;;;;;;;0.50;0.50;;;;;;;;;;5093112;28;20173;-63
2022/02/06 09:21:04;;;;;;;0.50;0.50;;;;;;;;;;5092715;28;20499;-61
2022/02/06 09:23:29;;;;;;;0.40;0.40;;;;;;;;;;5092864;28;21128;-62
2022/02/06 09:25:56;;;;;;;0.50;0.50;;;;;;;;;;5092934;28;20882;-63
2022/02/06 09:28:22;;;;;;;0.50;0.50;;;;;;;;;;5092934;28;20435;-62
2022/02/06 09:30:48;;;;;;;0.50;0.50;;;;;;;;;;5092665;28;20651;-64
2022/02/06 09:35:39;;;;;;;0.50;0.50;;;;;;;;;;5092993;28;20217;-65
2022/02/06 09:38:05;;;;;;;0.40;0.40;;;;;;;;;;5092722;28;20755;-62
2022/02/06 09:40:37;;;;;;;0.50;0.50;;;;;;;;;;5092506;28;20453;-64
2022/02/06 09:43:04;;;;;;;0.70;0.70;;;;;;;;;;5092665;28;20228;-65
2022/02/06 09:45:30;;;;;;;0.50;0.50;;;;;;;;;;5092526;28;20181;-65
2022/02/06 09:47:57;;;;;;;0.40;0.40;;;;;;;;;;5092453;28;20170;-65
2022/02/06 09:50:23;;;;;;;0.50;0.50;;;;;;;;;;5092081;28;20170;-64
2022/02/06 09:52:49;;;;;;;0.50;0.50;;;;;;;;;;5092215;28;20239;-64
2022/02/06 09:55:20;;;;;;;0.57;0.57;;;;;;;;;;5092035;28;20436;-66
2022/02/06 09:58:17;;;;;;;0.50;0.50;;;;;;;;;;5092093;28;20252;-64
2022/02/06 10:00:44;;;;;;;0.50;0.50;;;;;;;;;;5092051;28;20264;-65
2022/02/06 10:03:14;;;;;;;0.50;0.50;;;;;;;;;;5091779;28;20205;-65
2022/02/06 10:05:42;;;;;;;0.60;0.60;;;;;;;;;;5091985;28;20192;-67
2022/02/06 10:08:16;;;;;;;0.40;0.40;;;;;;;;;;5092064;28;20185;-66
2022/02/06 10:10:48;;;;;;;0.40;0.40;;;;;;;;;;5091933;28;20186;-65
2022/02/06 10:15:45;;;;;;;0.50;0.50;;;;;;;;;;5106017;22;20660;-62
2022/02/06 10:18:11;;;;;;;0.50;0.50;;;;;;;;;;5091800;28;20174;-62
2022/02/06 10:20:47;;;;;;;0.50;0.50;;;;;;;;;;5092259;28;20483;-62
2022/02/06 10:24:10;;;;;;;0.50;0.50;;;;;;;;;;5092147;28;20204;-62
2022/02/06 10:26:25;;;;;;;0.50;0.50;;;;;;;;;;5061281;28;20236;-63
2022/02/06 10:29:21;;;;;;;0.50;0.50;;;;;;;;;;5070594;28;20675;-64
2022/02/06 10:31:48;;;;;;;0.40;0.40;;;;;;;;;;5071337;28;20612;-62
2022/02/06 10:34:25;;;;;;;0.50;0.50;;;;;;;;;;5071144;28;20644;-62
2022/02/06 10:37:08;;;;;;;0.50;0.50;;;;;;;;;;5071546;28;20177;-62
2022/02/06 10:39:36;;;;;;;0.50;0.50;;;;;;;;;;5071633;28;20204;-62
2022/02/06 10:42:02;;;;;;;0.40;0.40;;;;;;;;;;5069846;28;20191;-63
2022/02/06 10:44:31;;;;;;;0.40;0.40;;;;;;;;;;5070751;28;20194;-62
2022/02/06 10:46:58;;;;;;;0.50;0.50;;;;;;;;;;5071237;28;20685;-62
2022/02/06 10:49:25;;;;;;;0.40;0.40;;;;;;;;;;5071498;28;20648;-62
2022/02/06 10:51:54;;;;;;;0.50;0.50;;;;;;;;;;5071288;28;20193;-62
2022/02/06 10:54:32;;;;;;;0.50;0.50;;;;;;;;;;5070685;28;20226;-62
2022/02/06 10:57:11;;;;;;;0.50;0.50;;;;;;;;;;5071134;28;20178;-62
2022/02/06 10:59:43;;;;;;;0.50;0.50;;;;;;;;;;5071248;28;20186;-62
2022/02/06 11:02:18;;;;;;;0.50;0.50;;;;;;;;;;5070878;28;20680;-62
2022/02/06 11:04:56;;;;;;;0.50;0.50;;;;;;;;;;5070975;28;20220;-63
2022/02/06 11:07:22;;;;;;;0.50;0.50;;;;;;;;;;5070742;28;20166;-62
2022/02/06 11:09:48;;;;;;;0.50;0.50;;;;;;;;;;5071077;28;20194;-62
2022/02/06 11:12:15;;;;;;;0.50;0.50;;;;;;;;;;5071012;28;20738;-62
2022/02/06 11:14:50;;;;;;;0.50;0.50;;;;;;;;;;5071021;28;20225;-62
2022/02/06 11:17:19;;;;;;;0.50;0.50;;;;;;;;;;5070313;28;20261;-62
2022/02/06 11:19:57;;;;;;;0.47;0.47;;;;;;;;;;5071043;28;20310;-62
2022/02/06 11:22:23;;;;;;;0.50;0.50;;;;;;;;;;5070766;28;20241;-62
2022/02/06 11:24:50;;;;;;;0.50;0.50;;;;;;;;;;5070859;28;20195;-62
2022/02/06 11:27:16;;;;;;;0.50;0.50;;;;;;;;;;5052362;28;20421;-62
2022/02/06 11:29:43;;;;;;;0.40;0.40;;;;;;;;;;5050353;28;20655;-62
2022/02/06 11:32:10;;;;;;;0.50;0.50;;;;;;;;;;5050706;28;20187;-62
2022/02/06 11:34:41;;;;;;;0.50;0.50;;;;;;;;;;5050857;28;20567;-62
2022/02/06 11:45:28;;;;;;;0.45;0.45;;;;;;;;;;5054501;28;20528;-62
2022/02/06 11:48:06;;;;;;;0.50;0.50;;;;;;;;;;5054570;28;20249;-62
2022/02/06 11:50:34;;;;;;;0.50;0.50;;;;;;;;;;5053886;28;20186;-63
2022/02/06 11:53:01;;;;;;;0.50;0.50;;;;;;;;;;5054448;28;20233;-62
2022/02/06 11:55:43;;;;;;;0.50;0.50;;;;;;;;;;5053987;28;20225;-62
2022/02/06 11:58:26;;;;;;;0.50;0.50;;;;;;;;;;5054410;28;20168;-62
2022/02/06 12:01:15;;;;;;;0.50;0.50;;;;;;;;;;5053774;28;20217;-62
2022/02/06 12:03:50;;;;;;;0.50;0.50;;;;;;;;;;5040912;28;20285;-62
2022/02/06 12:06:18;;;;;;;0.50;0.50;;;;;;;;;;5053819;28;20283;-62
2022/02/06 12:09:04;;;;;;;0.50;0.50;;;;;;;;;;5054281;28;20168;-62
2022/02/06 12:11:30;;;;;;;0.40;0.40;;;;;;;;;;5019292;28;20222;-62
2022/02/06 12:14:05;;;;;;;0.40;0.40;;;;;;;;;;5053564;28;20210;-62
2022/02/06 12:16:38;;;;;;;0.40;0.40;;;;;;;;;;5053945;28;20203;-62
2022/02/06 12:19:24;;;;;;;0.40;0.40;;;;;;;;;;5053715;28;20194;-62
2022/02/06 12:21:50;;;;;;;0.50;0.50;;;;;;;;;;5053479;28;20715;-62
2022/02/06 12:24:35;;;;;;;0.50;0.50;;;;;;;;;;5053063;28;20188;-62
2022/02/06 12:27:19;;;;;;;0.50;0.50;;;;;;;;;;5053621;28;20506;-62
2022/02/06 12:30:06;;;;;;;0.40;0.40;;;;;;;;;;5053702;28;20519;-62
2022/02/06 12:32:33;;;;;;;0.40;0.40;;;;;;;;;;5053666;28;20172;-62
2022/02/06 12:37:44;;;;;;;0.50;0.50;;;;;;;;;;5053931;28;20190;-62
2022/02/06 12:40:15;;;;;;;0.50;0.50;;;;;;;;;;5053397;28;20171;-62
2022/02/06 12:42:42;;;;;;;0.50;0.50;;;;;;;;;;5053642;28;20218;-62
2022/02/06 12:45:15;;;;;;;0.50;0.50;;;;;;;;;;5053303;28;20210;-62
2022/02/06 12:47:46;;;;;;;0.50;0.50;;;;;;;;;;5056535;28;20194;-62
2022/02/06 12:50:13;;;;;;;0.50;0.50;;;;;;;;;;5073560;28;20174;-60
2022/02/06 12:52:39;;;;;;;0.50;0.50;;;;;;;;;;5054394;28;20197;-62
2022/02/06 12:55:05;;;;;;;0.50;0.50;;;;;;;;;;5073221;28;20274;-61
2022/02/06 12:57:39;;;;;;;0.50;0.50;;;;;;;;;;5072614;28;20420;-62
2022/02/06 13:00:06;;;;;;;0.50;0.50;;;;;;;;;;5055349;28;20553;-62
2022/02/06 13:02:35;;;;;;;0.50;0.50;;;;;;;;;;5072870;28;20202;-62
2022/02/06 13:05:03;;;;;;;0.50;0.50;;;;;;;;;;5072714;28;20240;-62
2022/02/06 13:07:30;;;;;;;0.40;0.40;;;;;;;;;;5059967;28;20229;-62
2022/02/06 13:10:03;;;;;;;0.50;0.50;;;;;;;;;;5052966;28;20164;-62
2022/02/06 13:12:37;;;;;;;0.50;0.50;;;;;;;;;;5052702;28;20175;-62
2022/02/06 13:20:29;;;;;;;0.50;0.50;;;;;;;;;;5052116;28;20187;-62
2022/02/06 13:25:41;;;;;;;0.50;0.50;;;;;;;;;;5052774;28;20195;-62
2022/02/06 13:30:51;;;;;;;0.50;0.50;;;;;;;;;;5051866;28;20179;-62
2022/02/06 13:33:29;;;;;;;0.50;0.50;;;;;;;;;;5052544;28;20216;-62
2022/02/06 13:36:07;;;;;;;0.50;0.50;;;;;;;;;;5052750;28;20179;-62
2022/02/06 13:38:34;;;;;;;0.50;0.50;;;;;;;;;;5052535;28;20305;-62
2022/02/06 13:41:01;;;;;;;0.50;0.50;;;;;;;;;;5052201;28;20180;-62
2022/02/06 13:43:38;;;;;;;0.60;0.60;;;;;;;;;;5034373;28;20238;-62
2022/02/06 13:46:11;;;;;;;0.50;0.50;;;;;;;;;;5052434;28;20168;-62
2022/02/06 13:48:37;;;;;;;0.55;0.55;;;;;;;;;;5052152;28;20206;-62
2022/02/06 13:51:05;;;;;;;0.50;0.50;;;;;;;;;;5052031;28;20538;-63
2022/02/06 13:53:33;;;;;;;0.45;0.45;;;;;;;;;;5051925;28;20232;-62
2022/02/06 13:56:03;;;;;;;0.60;0.60;;;;;;;;;;5052480;28;20179;-62
2022/02/06 13:58:30;;;;;;;0.50;0.50;;;;;;;;;;5052150;28;20254;-63
2022/02/06 14:00:59;;;;;;;0.60;0.60;;;;;;;;;;5052286;28;20227;-61
2022/02/06 14:03:41;;;;;;;0.50;0.50;;;;;;;;;;5051882;28;20207;-61
2022/02/06 14:06:07;;;;;;;0.57;0.57;;;;;;;;;;5052042;28;20172;-63
2022/02/06 14:08:36;;;;;;;0.50;0.50;;;;;;;;;;5051867;28;20179;-61
2022/02/06 14:11:07;;;;;;;0.60;0.60;;;;;;;;;;5051780;28;20547;-61
2022/02/06 14:13:33;;;;;;;0.60;0.60;;;;;;;;;;5052642;28;20241;-61
2022/02/06 14:16:04;;;;;;;0.60;0.60;;;;;;;;;;5052073;28;20645;-61
2022/02/06 14:18:30;;;;;;;0.50;0.50;;;;;;;;;;5051949;28;20406;-61
2022/02/06 14:20:57;;;;;;;0.50;0.50;;;;;;;;;;5051793;28;20663;-61
2022/02/06 14:23:23;;;;;;;0.50;0.50;;;;;;;;;;5051534;28;20904;-61
2022/02/06 14:25:49;;;;;;;0.50;0.50;;;;;;;;;;5034061;28;20207;-61
2022/02/06 14:28:16;;;;;;;0.60;0.60;;;;;;;;;;5052047;28;20406;-61
2022/02/06 14:30:43;;;;;;;0.45;0.45;;;;;;;;;;5051757;28;20179;-61
2022/02/06 14:33:25;;;;;;;0.50;0.50;;;;;;;;;;5052052;28;20218;-61
2022/02/06 14:35:54;;;;;;;0.60;0.60;;;;;;;;;;5051897;28;20179;-61
2022/02/06 14:38:37;;;;;;;0.60;0.60;;;;;;;;;;5051925;28;20588;-61
2022/02/06 14:43:43;;;;;;;0.50;0.50;;;;;;;;;;5051764;28;20693;-61
2022/02/06 14:46:10;;;;;;;0.60;0.60;;;;;;;;;;5051661;28;20269;-61
2022/02/06 14:48:36;;;;;;;0.50;0.50;;;;;;;;;;5034002;28;20174;-61
2022/02/06 14:51:02;;;;;;;0.50;0.50;;;;;;;;;;5033720;28;20179;-61
2022/02/06 14:53:28;;;;;;;0.50;0.50;;;;;;;;;;5034047;28;20197;-61
2022/02/06 14:55:56;;;;;;;0.50;0.50;;;;;;;;;;5051801;28;20194;-61
2022/02/06 14:58:22;;;;;;;0.50;0.50;;;;;;;;;;5051747;28;20515;-61
2022/02/06 15:00:48;;;;;;;0.50;0.50;;;;;;;;;;5033405;28;20193;-61
2022/02/06 15:03:17;;;;;;;0.50;0.50;;;;;;;;;;5051737;28;20203;-61
2022/02/06 15:05:43;;;;;;;0.50;0.50;;;;;;;;;;5051688;28;20661;-61
2022/02/06 15:08:09;;;;;;;0.40;0.40;;;;;;;;;;5033458;28;20210;-61
2022/02/06 15:10:35;;;;;;;0.60;0.60;;;;;;;;;;5051311;28;20178;-61
2022/02/06 15:13:03;;;;;;;0.60;0.60;;;;;;;;;;5051697;28;20833;-61
2022/02/06 15:15:34;;;;;;;0.50;0.50;;;;;;;;;;5053582;28;20372;-62
2022/02/06 15:18:09;;;;;;;0.50;0.50;;;;;;;;;;5075183;28;20174;-61
2022/02/06 15:20:36;;;;;;;0.50;0.50;;;;;;;;;;5074703;28;20173;-60
2022/02/06 15:23:06;;;;;;;0.60;0.60;;;;;;;;;;5075129;28;20206;-60
2022/02/06 15:25:32;;;;;;;0.50;0.50;;;;;;;;;;5074833;28;20217;-60
2022/02/06 15:27:59;;;;;;;0.40;0.40;;;;;;;;;;5075186;28;20533;-61
2022/02/06 15:30:25;;;;;;;0.50;0.50;;;;;;;;;;5074843;28;20404;-61
2022/02/06 15:32:51;;;;;;;0.47;0.47;;;;;;;;;;5074401;28;20182;-60
2022/02/06 15:35:17;;;;;;;0.50;0.50;;;;;;;;;;5073364;28;20197;-63
2022/02/06 15:37:43;;;;;;;0.50;0.50;;;;;;;;;;5037266;28;20406;-62
2022/02/06 15:40:15;;;;;;;0.50;0.50;;;;;;;;;;5054578;28;20183;-61
2022/02/06 15:42:41;;;;;;;0.50;0.50;;;;;;;;;;5054720;28;20460;-62
2022/02/06 15:45:07;;;;;;;0.50;0.50;;;;;;;;;;5036255;28;20260;-62
2022/02/06 15:47:33;;;;;;;0.50;0.50;;;;;;;;;;5054547;28;20168;-61
2022/02/06 15:50:00;;;;;;;0.50;0.50;;;;;;;;;;5054676;28;20304;-62
2022/02/06 15:52:26;;;;;;;0.60;0.60;;;;;;;;;;5054462;28;20445;-61
2022/02/06 15:54:52;;;;;;;0.50;0.50;;;;;;;;;;5054040;28;20352;-61
2022/02/06 15:57:18;;;;;;;0.50;0.50;;;;;;;;;;5054098;28;20189;-61
2022/02/06 15:59:44;;;;;;;0.50;0.50;;;;;;;;;;5054581;28;20191;-61
2022/02/06 16:02:10;;;;;;;0.50;0.50;;;;;;;;;;5054203;28;20457;-61
2022/02/06 16:04:36;;;;;;;0.60;0.60;;;;;;;;;;5054174;28;20920;-61
2022/02/06 16:07:02;;;;;;;0.40;0.40;;;;;;;;;;5054011;28;20417;-61
2022/02/06 16:09:29;;;;;;;0.40;0.40;;;;;;;;;;5053857;28;20409;-61
2022/02/06 16:11:56;;;;;;;0.50;0.50;;;;;;;;;;5054113;28;20173;-61
2022/02/06 16:14:22;;;;;;;0.50;0.50;;;;;;;;;;5078062;23;20242;-62
2022/02/06 16:16:49;;;;;;;0.50;0.50;;;;;;;;;;5083002;28;20560;-63
2022/02/06 16:19:15;;;;;;;0.50;0.50;;;;;;;;;;5094123;28;20177;-67
2022/02/06 16:21:41;;;;;;;0.50;0.50;;;;;;;;;;5093527;28;20203;-65
2022/02/06 16:24:07;;;;;;;0.50;0.50;;;;;;;;;;5092384;28;20169;-64
2022/02/06 16:26:33;;;;;;;0.50;0.50;;;;;;;;;;5072470;28;20522;-64
2022/02/06 16:28:59;;;;;;;0.50;0.50;;;;;;;;;;5073529;28;20415;-64
2022/02/06 16:31:25;;;;;;;0.50;0.50;;;;;;;;;;5073732;28;20408;-64
2022/02/06 16:33:52;;;;;;;0.50;0.50;;;;;;;;;;5073748;28;20404;-64
2022/02/06 16:36:18;;;;;;;0.50;0.50;;;;;;;;;;5073825;28;20449;-64
2022/02/06 16:38:44;;;;;;;0.50;0.50;;;;;;;;;;5073249;28;20173;-64
2022/02/06 16:41:10;;;;;;;0.50;0.50;;;;;;;;;;5073308;28;20408;-64
2022/02/06 16:43:36;;;;;;;0.50;0.50;;;;;;;;;;5073725;28;20179;-64
2022/02/06 16:46:02;;;;;;;0.50;0.50;;;;;;;;;;5073136;28;20684;-64
2022/02/06 16:48:29;;;;;;;0.60;0.60;;;;;;;;;;5073606;28;20961;-63
2022/02/06 16:50:56;;;;;;;0.50;0.50;;;;;;;;;;5072736;28;20169;-64
2022/02/06 16:53:22;;;;;;;0.50;0.50;;;;;;;;;;5073426;28;20256;-64
2022/02/06 16:55:48;;;;;;;0.50;0.50;;;;;;;;;;5073370;28;20311;-64
2022/02/06 16:58:15;;;;;;;0.50;0.50;;;;;;;;;;5072985;28;20408;-64
2022/02/06 17:00:41;;;;;;;0.43;0.43;;;;;;;;;;5072803;28;20193;-64
2022/02/06 17:03:07;;;;;;;0.52;0.52;;;;;;;;;;5073058;28;20248;-64
2022/02/06 17:05:33;;;;;;;0.40;0.40;;;;;;;;;;5073422;28;20200;-64
2022/02/06 17:08:01;;;;;;;0.50;0.50;;;;;;;;;;5055235;28;20552;-64
2022/02/06 17:10:30;;;;;;;0.50;0.50;;;;;;;;;;5072263;28;20174;-64
2022/02/06 17:12:56;;;;;;;0.60;0.60;;;;;;;;;;5072594;28;20338;-64
2022/02/06 17:15:22;;;;;;;0.50;0.50;;;;;;;;;;5072891;28;20210;-64
2022/02/06 17:17:49;;;;;;;0.50;0.50;;;;;;;;;;5072908;28;20176;-64
2022/02/06 17:20:15;;;;;;;0.50;0.50;;;;;;;;;;5072710;28;20179;-64
2022/02/06 17:22:41;;;;;;;0.52;0.52;;;;;;;;;;5072187;28;20201;-64
2022/02/06 17:25:07;;;;;;;0.60;0.60;;;;;;;;;;5072595;28;20189;-64
2022/02/06 17:27:33;;;;;;;0.50;0.50;;;;;;;;;;5072790;28;20178;-64
2022/02/06 17:29:59;;;;;;;0.50;0.50;;;;;;;;;;5072795;28;20296;-64